sensor_id;sensor_type;location;lat;lon;timestamp;pressure;altitude;pressure_sealevel;temperature;humidity
9474;BME280;8865;47.636;7.692;2023-02-01T00:00:05;99267.56;;;5.61;100.00
9474;BME280;8865;47.636;7.692;2023-02-01T00:02:31;99260.69;;;5.60;100.00
9474;BME280;8865;47.636;7.692;2023-02-01T00:04:57;99255.78;;;5.54;100.00
9474;BME280;8865;47.636;7.692;2023-02-01T00:07:23;99254.88;;;5.55;100.00
9474;BME280;8865;47.636;7.692;2023-02-01T00:09:49;99250.44;;;5.57;100.00
9474;BME280;8865;47.636;7.692;2023-02-01T00:12:15;99249.84;;;5.52;100.00
9474;BME280;8865;47.636;7.692;2023-02-01T00:14:41;99242.13;;;5.50;100.00
9474;BME280;8865;47.636;7.692;2023-02-01T00:17:07;99241.59;;;5.61;100.00
9474;BME280;8865;47.636;7.692;2023-02-01T00:19:33;99244.19;;;5.61;100.00
9474;BME280;8865;47.636;7.692;2023-02-01T00:21:59;99231.34;;;5.58;100.00
9474;BME280;8865;47.636;7.692;2023-02-01T00:24:26;99237.28;;;5.60;100.00
9474;BME280;8865;47.636;7.692;2023-02-01T00:26:52;99238.22;;;5.59;100.00
9474;BME280;8865;47.636;7.692;2023-02-01T00:29:19;99228.53;;;5.45;100.00
9474;BME280;8865;47.636;7.692;2023-02-01T00:31:45;99221.56;;;5.46;100.00
9474;BME280;8865;47.636;7.692;2023-02-01T00:34:13;99225.06;;;5.45;100.00
9474;BME280;8865;47.636;7.692;2023-02-01T00:36:40;99224.47;;;5.40;100.00
9474;BME280;8865;47.636;7.692;2023-02-01T00:39:07;99224.91;;;5.48;100.00
9474;BME280;8865;47.636;7.692;2023-02-01T00:41:33;99217.13;;;5.48;100.00
9474;BME280;8865;47.636;7.692;2023-02-01T00:43:59;99216.22;;;5.49;100.00
9474;BME280;8865;47.636;7.692;2023-02-01T00:46:25;99213.91;;;5.43;100.00
9474;BME280;8865;47.636;7.692;2023-02-01T00:48:51;99213.53;;;5.50;100.00
9474;BME280;8865;47.636;7.692;2023-02-01T00:51:20;99208.19;;;5.53;100.00
9474;BME280;8865;47.636;7.692;2023-02-01T00:53:46;99214.28;;;5.52;100.00
9474;BME280;8865;47.636;7.692;2023-02-01T00:56:13;99216.13;;;5.50;100.00
9474;BME280;8865;47.636;7.692;2023-02-01T00:58:39;99207.97;;;5.41;100.00
9474;BME280;8865;47.636;7.692;2023-02-01T01:01:08;99207.81;;;5.44;100.00
9474;BME280;8865;47.636;7.692;2023-02-01T01:03:37;99197.44;;;5.44;100.00
9474;BME280;8865;47.636;7.692;2023-02-01T01:06:09;99199.09;;;5.45;100.00
9474;BME280;8865;47.636;7.692;2023-02-01T01:08:37;99197.34;;;5.45;100.00
9474;BME280;8865;47.636;7.692;2023-02-01T01:11:17;99204.66;;;5.37;100.00
9474;BME280;8865;47.636;7.692;2023-02-01T01:13:46;99206.50;;;5.35;100.00
9474;BME280;8865;47.636;7.692;2023-02-01T01:16:12;99206.31;;;5.21;100.00
9474;BME280;8865;47.636;7.692;2023-02-01T01:18:38;99205.56;;;5.18;100.00
9474;BME280;8865;47.636;7.692;2023-02-01T01:21:06;99202.00;;;5.21;100.00
9474;BME280;8865;47.636;7.692;2023-02-01T01:23:32;99196.78;;;5.21;100.00
9474;BME280;8865;47.636;7.692;2023-02-01T01:25:58;99195.34;;;5.33;100.00
9474;BME280;8865;47.636;7.692;2023-02-01T01:28:24;99200.31;;;5.38;100.00
9474;BME280;8865;47.636;7.692;2023-02-01T01:30:50;99197.72;;;5.38;100.00
9474;BME280;8865;47.636;7.692;2023-02-01T01:33:16;99196.19;;;5.33;100.00
9474;BME280;8865;47.636;7.692;2023-02-01T01:35:42;99196.94;;;5.35;100.00
9474;BME280;8865;47.636;7.692;2023-02-01T01:38:10;99195.09;;;5.20;100.00
9474;BME280;8865;47.636;7.692;2023-02-01T01:40:37;99199.03;;;5.29;100.00
9474;BME280;8865;47.636;7.692;2023-02-01T01:43:12;99204.09;;;5.13;100.00
9474;BME280;8865;47.636;7.692;2023-02-01T01:45:38;99210.16;;;5.13;100.00
9474;BME280;8865;47.636;7.692;2023-02-01T01:48:08;99212.44;;;5.19;100.00
9474;BME280;8865;47.636;7.692;2023-02-01T01:50:40;99200.38;;;5.18;100.00
9474;BME280;8865;47.636;7.692;2023-02-01T01:53:11;99195.09;;;5.03;100.00
9474;BME280;8865;47.636;7.692;2023-02-01T01:55:42;99201.81;;;5.07;100.00
9474;BME280;8865;47.636;7.692;2023-02-01T01:58:20;99201.34;;;4.98;100.00
9474;BME280;8865;47.636;7.692;2023-02-01T02:00:47;99207.59;;;4.94;100.00
9474;BME280;8865;47.636;7.692;2023-02-01T02:03:20;99197.91;;;4.98;100.00
9474;BME280;8865;47.636;7.692;2023-02-01T02:05:48;99193.25;;;5.05;100.00
9474;BME280;8865;47.636;7.692;2023-02-01T02:08:17;99190.44;;;5.09;100.00
9474;BME280;8865;47.636;7.692;2023-02-01T02:10:43;99194.03;;;5.24;100.00
9474;BME280;8865;47.636;7.692;2023-02-01T02:13:32;99191.53;;;5.23;100.00
9474;BME280;8865;47.636;7.692;2023-02-01T02:16:20;99186.34;;;5.23;100.00
9474;BME280;8865;47.636;7.692;2023-02-01T02:24:55;99177.75;;;5.03;100.00
9474;BME280;8865;47.636;7.692;2023-02-01T02:27:31;99167.06;;;4.92;100.00
9474;BME280;8865;47.636;7.692;2023-02-01T02:35:29;99181.75;;;4.74;100.00
9474;BME280;8865;47.636;7.692;2023-02-01T02:38:24;99176.09;;;4.65;100.00
9474;BME280;8865;47.636;7.692;2023-02-01T02:44:32;99183.22;;;4.60;100.00
9474;BME280;8865;47.636;7.692;2023-02-01T02:50:15;99170.91;;;4.65;100.00
9474;BME280;8865;47.636;7.692;2023-02-01T02:53:11;99168.63;;;4.77;100.00
9474;BME280;8865;47.636;7.692;2023-02-01T02:55:58;99168.91;;;4.71;100.00
9474;BME280;8865;47.636;7.692;2023-02-01T02:58:45;99177.28;;;4.58;100.00
9474;BME280;8865;47.636;7.692;2023-02-01T03:01:31;99169.78;;;4.52;100.00
9474;BME280;8865;47.636;7.692;2023-02-01T03:04:16;99178.47;;;4.51;100.00
9474;BME280;8865;47.636;7.692;2023-02-01T03:06:44;99182.88;;;4.49;100.00
9474;BME280;8865;47.636;7.692;2023-02-01T03:09:28;99180.22;;;4.51;100.00
9474;BME280;8865;47.636;7.692;2023-02-01T03:12:00;99169.63;;;4.55;100.00
9474;BME280;8865;47.636;7.692;2023-02-01T03:15:03;99163.63;;;4.55;100.00
9474;BME280;8865;47.636;7.692;2023-02-01T03:17:35;99161.09;;;4.53;100.00
9474;BME280;8865;47.636;7.692;2023-02-01T03:20:06;99165.34;;;4.54;100.00
9474;BME280;8865;47.636;7.692;2023-02-01T03:22:33;99167.94;;;4.54;100.00
9474;BME280;8865;47.636;7.692;2023-02-01T03:25:08;99178.59;;;4.48;100.00
9474;BME280;8865;47.636;7.692;2023-02-01T03:27:43;99165.41;;;4.53;100.00
9474;BME280;8865;47.636;7.692;2023-02-01T03:32:45;99164.66;;;4.51;100.00
9474;BME280;8865;47.636;7.692;2023-02-01T03:38:06;99169.91;;;4.49;100.00
9474;BME280;8865;47.636;7.692;2023-02-01T03:40:36;99179.25;;;4.53;100.00
9474;BME280;8865;47.636;7.692;2023-02-01T03:43:04;99169.72;;;4.54;100.00
9474;BME280;8865;47.636;7.692;2023-02-01T03:45:42;99168.72;;;4.56;100.00
9474;BME280;8865;47.636;7.692;2023-02-01T03:48:11;99164.44;;;4.55;100.00
9474;BME280;8865;47.636;7.692;2023-02-01T03:50:39;99164.72;;;4.49;100.00
9474;BME280;8865;47.636;7.692;2023-02-01T03:53:13;99161.94;;;4.54;100.00
9474;BME280;8865;47.636;7.692;2023-02-01T03:55:42;99175.09;;;4.49;100.00
9474;BME280;8865;47.636;7.692;2023-02-01T03:58:19;99163.41;;;4.59;100.00
9474;BME280;8865;47.636;7.692;2023-02-01T04:00:53;99170.19;;;4.62;100.00
9474;BME280;8865;47.636;7.692;2023-02-01T04:03:20;99174.28;;;4.49;100.00
9474;BME280;8865;47.636;7.692;2023-02-01T04:05:48;99169.91;;;4.49;100.00
9474;BME280;8865;47.636;7.692;2023-02-01T04:08:15;99173.84;;;4.58;100.00
9474;BME280;8865;47.636;7.692;2023-02-01T04:10:41;99193.81;;;4.56;100.00
9474;BME280;8865;47.636;7.692;2023-02-01T04:13:06;99192.78;;;4.41;100.00
9474;BME280;8865;47.636;7.692;2023-02-01T04:15:33;99192.28;;;4.52;100.00
9474;BME280;8865;47.636;7.692;2023-02-01T04:18:00;99201.06;;;4.49;100.00
9474;BME280;8865;47.636;7.692;2023-02-01T04:20:26;99207.22;;;4.46;100.00
9474;BME280;8865;47.636;7.692;2023-02-01T04:22:52;99216.63;;;4.49;100.00
9474;BME280;8865;47.636;7.692;2023-02-01T04:25:18;99212.97;;;4.53;100.00
9474;BME280;8865;47.636;7.692;2023-02-01T04:27:44;99215.00;;;4.46;100.00
9474;BME280;8865;47.636;7.692;2023-02-01T04:30:11;99216.91;;;4.43;100.00
9474;BME280;8865;47.636;7.692;2023-02-01T04:32:38;99222.84;;;4.45;100.00
9474;BME280;8865;47.636;7.692;2023-02-01T04:35:05;99228.91;;;4.45;100.00
9474;BME280;8865;47.636;7.692;2023-02-01T04:37:31;99227.69;;;4.34;100.00
9474;BME280;8865;47.636;7.692;2023-02-01T04:39:57;99227.69;;;4.34;100.00
9474;BME280;8865;47.636;7.692;2023-02-01T04:42:23;99221.75;;;4.32;100.00
9474;BME280;8865;47.636;7.692;2023-02-01T04:44:49;99220.13;;;4.29;100.00
9474;BME280;8865;47.636;7.692;2023-02-01T04:47:15;99219.34;;;4.27;100.00
9474;BME280;8865;47.636;7.692;2023-02-01T04:49:41;99222.97;;;4.23;100.00
9474;BME280;8865;47.636;7.692;2023-02-01T04:52:07;99227.06;;;4.28;100.00
9474;BME280;8865;47.636;7.692;2023-02-01T04:54:33;99219.56;;;4.22;100.00
9474;BME280;8865;47.636;7.692;2023-02-01T04:56:59;99208.25;;;4.23;100.00
9474;BME280;8865;47.636;7.692;2023-02-01T04:59:26;99199.84;;;4.18;100.00
9474;BME280;8865;47.636;7.692;2023-02-01T05:01:52;99190.03;;;4.06;100.00
9474;BME280;8865;47.636;7.692;2023-02-01T05:04:18;99204.78;;;4.04;100.00
9474;BME280;8865;47.636;7.692;2023-02-01T05:06:44;99195.97;;;4.08;100.00
9474;BME280;8865;47.636;7.692;2023-02-01T05:09:11;99195.63;;;4.16;100.00
9474;BME280;8865;47.636;7.692;2023-02-01T05:11:37;99190.31;;;4.19;100.00
9474;BME280;8865;47.636;7.692;2023-02-01T05:14:22;99193.75;;;4.19;100.00
9474;BME280;8865;47.636;7.692;2023-02-01T05:16:48;99190.25;;;4.20;100.00
9474;BME280;8865;47.636;7.692;2023-02-01T05:19:14;99185.97;;;4.19;100.00
9474;BME280;8865;47.636;7.692;2023-02-01T05:21:40;99188.69;;;4.16;100.00
9474;BME280;8865;47.636;7.692;2023-02-01T05:24:08;99195.63;;;4.16;100.00
9474;BME280;8865;47.636;7.692;2023-02-01T05:26:45;99205.72;;;4.22;100.00
9474;BME280;8865;47.636;7.692;2023-02-01T05:29:12;99208.84;;;4.30;100.00
9474;BME280;8865;47.636;7.692;2023-02-01T05:31:39;99212.06;;;4.35;100.00
9474;BME280;8865;47.636;7.692;2023-02-01T05:34:05;99204.00;;;4.41;100.00
9474;BME280;8865;47.636;7.692;2023-02-01T05:36:31;99201.75;;;4.53;100.00
9474;BME280;8865;47.636;7.692;2023-02-01T05:38:57;99216.06;;;4.42;100.00
9474;BME280;8865;47.636;7.692;2023-02-01T05:41:24;99211.09;;;4.38;100.00
9474;BME280;8865;47.636;7.692;2023-02-01T05:43:50;99210.44;;;4.33;100.00
9474;BME280;8865;47.636;7.692;2023-02-01T05:46:16;99215.63;;;4.33;100.00
9474;BME280;8865;47.636;7.692;2023-02-01T05:48:42;99208.13;;;4.26;100.00
9474;BME280;8865;47.636;7.692;2023-02-01T05:51:09;99204.22;;;4.37;100.00
9474;BME280;8865;47.636;7.692;2023-02-01T05:53:35;99204.06;;;4.40;100.00
9474;BME280;8865;47.636;7.692;2023-02-01T05:56:02;99212.63;;;4.42;100.00
9474;BME280;8865;47.636;7.692;2023-02-01T05:58:29;99220.25;;;4.45;100.00
9474;BME280;8865;47.636;7.692;2023-02-01T06:00:55;99218.88;;;4.38;100.00
9474;BME280;8865;47.636;7.692;2023-02-01T06:03:21;99222.63;;;4.50;100.00
9474;BME280;8865;47.636;7.692;2023-02-01T06:05:47;99224.88;;;4.57;100.00
9474;BME280;8865;47.636;7.692;2023-02-01T06:08:14;99227.13;;;4.46;100.00
9474;BME280;8865;47.636;7.692;2023-02-01T06:10:40;99226.22;;;4.47;100.00
9474;BME280;8865;47.636;7.692;2023-02-01T06:13:06;99232.94;;;4.51;100.00
9474;BME280;8865;47.636;7.692;2023-02-01T06:15:33;99226.22;;;4.47;100.00
9474;BME280;8865;47.636;7.692;2023-02-01T06:17:59;99232.72;;;4.56;100.00
9474;BME280;8865;47.636;7.692;2023-02-01T06:20:25;99231.56;;;4.63;100.00
9474;BME280;8865;47.636;7.692;2023-02-01T06:22:51;99226.97;;;4.68;100.00
9474;BME280;8865;47.636;7.692;2023-02-01T06:25:18;99230.06;;;4.57;100.00
9474;BME280;8865;47.636;7.692;2023-02-01T06:27:44;99230.06;;;4.38;100.00
9474;BME280;8865;47.636;7.692;2023-02-01T06:30:11;99236.81;;;4.42;100.00
9474;BME280;8865;47.636;7.692;2023-02-01T06:32:39;99238.28;;;4.48;100.00
9474;BME280;8865;47.636;7.692;2023-02-01T06:35:09;99240.03;;;4.47;100.00
9474;BME280;8865;47.636;7.692;2023-02-01T06:37:42;99241.94;;;4.44;100.00
9474;BME280;8865;47.636;7.692;2023-02-01T06:40:08;99247.81;;;4.47;100.00
9474;BME280;8865;47.636;7.692;2023-02-01T06:42:34;99252.78;;;4.52;100.00
9474;BME280;8865;47.636;7.692;2023-02-01T06:45:00;99251.09;;;4.51;100.00
9474;BME280;8865;47.636;7.692;2023-02-01T06:47:26;99259.53;;;4.56;100.00
9474;BME280;8865;47.636;7.692;2023-02-01T06:49:52;99257.34;;;4.66;100.00
9474;BME280;8865;47.636;7.692;2023-02-01T06:52:18;99262.06;;;4.58;100.00
9474;BME280;8865;47.636;7.692;2023-02-01T06:54:44;99258.88;;;4.51;100.00
9474;BME280;8865;47.636;7.692;2023-02-01T06:57:10;99270.19;;;4.50;100.00
9474;BME280;8865;47.636;7.692;2023-02-01T06:59:37;99281.81;;;4.60;100.00
9474;BME280;8865;47.636;7.692;2023-02-01T07:02:03;99283.09;;;4.71;100.00
9474;BME280;8865;47.636;7.692;2023-02-01T07:04:28;99291.16;;;4.45;100.00
9474;BME280;8865;47.636;7.692;2023-02-01T07:06:56;99287.69;;;4.45;100.00
9474;BME280;8865;47.636;7.692;2023-02-01T07:11:50;99295.72;;;4.59;100.00
9474;BME280;8865;47.636;7.692;2023-02-01T07:14:16;99293.53;;;4.50;100.00
9474;BME280;8865;47.636;7.692;2023-02-01T07:16:42;99282.81;;;4.58;100.00
9474;BME280;8865;47.636;7.692;2023-02-01T07:19:08;99280.38;;;4.55;100.00
9474;BME280;8865;47.636;7.692;2023-02-01T07:21:34;99275.31;;;4.52;100.00
9474;BME280;8865;47.636;7.692;2023-02-01T07:24:00;99277.59;;;4.39;100.00
9474;BME280;8865;47.636;7.692;2023-02-01T07:26:26;99273.75;;;4.28;100.00
9474;BME280;8865;47.636;7.692;2023-02-01T07:28:52;99280.59;;;4.29;100.00
9474;BME280;8865;47.636;7.692;2023-02-01T07:31:19;99289.25;;;4.30;100.00
9474;BME280;8865;47.636;7.692;2023-02-01T07:33:50;99289.09;;;4.33;100.00
9474;BME280;8865;47.636;7.692;2023-02-01T07:36:20;99284.63;;;4.37;100.00
9474;BME280;8865;47.636;7.692;2023-02-01T07:38:46;99288.75;;;4.41;100.00
9474;BME280;8865;47.636;7.692;2023-02-01T07:41:13;99287.56;;;4.48;100.00
9474;BME280;8865;47.636;7.692;2023-02-01T07:43:38;99290.22;;;4.46;100.00
9474;BME280;8865;47.636;7.692;2023-02-01T07:46:05;99289.31;;;4.47;100.00
9474;BME280;8865;47.636;7.692;2023-02-01T07:48:32;99288.44;;;4.49;100.00
9474;BME280;8865;47.636;7.692;2023-02-01T07:51:02;99287.69;;;4.45;100.00
9474;BME280;8865;47.636;7.692;2023-02-01T07:53:29;99290.09;;;4.50;100.00
9474;BME280;8865;47.636;7.692;2023-02-01T07:55:56;99300.25;;;4.54;100.00
9474;BME280;8865;47.636;7.692;2023-02-01T07:58:23;99306.25;;;4.56;100.00
9474;BME280;8865;47.636;7.692;2023-02-01T08:00:49;99310.09;;;4.67;100.00
9474;BME280;8865;47.636;7.692;2023-02-01T08:03:33;99301.75;;;4.79;100.00
9474;BME280;8865;47.636;7.692;2023-02-01T08:05:59;99303.50;;;4.78;100.00
9474;BME280;8865;47.636;7.692;2023-02-01T08:08:25;99308.78;;;4.77;100.00
9474;BME280;8865;47.636;7.692;2023-02-01T08:10:57;99310.13;;;4.86;100.00
9474;BME280;8865;47.636;7.692;2023-02-01T08:13:23;99298.13;;;4.83;100.00
9474;BME280;8865;47.636;7.692;2023-02-01T08:15:49;99293.97;;;4.79;100.00
9474;BME280;8865;47.636;7.692;2023-02-01T08:18:15;99295.72;;;4.78;100.00
9474;BME280;8865;47.636;7.692;2023-02-01T08:20:46;99293.81;;;4.82;100.00
9474;BME280;8865;47.636;7.692;2023-02-01T08:23:13;99284.84;;;4.89;100.00
9474;BME280;8865;47.636;7.692;2023-02-01T08:25:39;99291.44;;;4.96;100.00
9474;BME280;8865;47.636;7.692;2023-02-01T08:28:06;99288.13;;;5.12;100.00
9474;BME280;8865;47.636;7.692;2023-02-01T08:30:32;99289.50;;;5.19;100.00
9474;BME280;8865;47.636;7.692;2023-02-01T08:32:58;99305.94;;;5.19;100.00
9474;BME280;8865;47.636;7.692;2023-02-01T08:35:24;99302.34;;;5.22;100.00
9474;BME280;8865;47.636;7.692;2023-02-01T08:37:50;99300.91;;;5.16;100.00
9474;BME280;8865;47.636;7.692;2023-02-01T08:40:16;99299.75;;;5.22;100.00
9474;BME280;8865;47.636;7.692;2023-02-01T08:42:43;99289.78;;;5.32;100.00
9474;BME280;8865;47.636;7.692;2023-02-01T08:45:22;99295.72;;;5.16;100.00
9474;BME280;8865;47.636;7.692;2023-02-01T08:47:52;99286.16;;;5.17;100.00
9474;BME280;8865;47.636;7.692;2023-02-01T08:50:19;99281.09;;;5.14;100.00
9474;BME280;8865;47.636;7.692;2023-02-01T08:52:46;99290.63;;;5.32;100.00
9474;BME280;8865;47.636;7.692;2023-02-01T08:55:12;99304.84;;;5.43;100.00
9474;BME280;8865;47.636;7.692;2023-02-01T08:57:39;99304.13;;;5.58;100.00
9474;BME280;8865;47.636;7.692;2023-02-01T09:00:08;99307.47;;;5.60;100.00
9474;BME280;8865;47.636;7.692;2023-02-01T09:02:35;99310.50;;;5.51;100.00
9474;BME280;8865;47.636;7.692;2023-02-01T09:05:01;99305.69;;;5.43;100.00
9474;BME280;8865;47.636;7.692;2023-02-01T09:07:27;99305.69;;;5.43;100.00
9474;BME280;8865;47.636;7.692;2023-02-01T09:09:53;99302.69;;;5.33;100.00
9474;BME280;8865;47.636;7.692;2023-02-01T09:12:22;99309.06;;;5.45;100.00
9474;BME280;8865;47.636;7.692;2023-02-01T09:14:48;99308.19;;;5.64;100.00
9474;BME280;8865;47.636;7.692;2023-02-01T09:17:14;99307.16;;;5.66;100.00
9474;BME280;8865;47.636;7.692;2023-02-01T09:19:40;99313.59;;;5.77;100.00
9474;BME280;8865;47.636;7.692;2023-02-01T09:22:06;99318.66;;;5.62;100.00
9474;BME280;8865;47.636;7.692;2023-02-01T09:24:32;99327.28;;;5.63;100.00
9474;BME280;8865;47.636;7.692;2023-02-01T09:26:58;99328.00;;;5.84;100.00
9474;BME280;8865;47.636;7.692;2023-02-01T09:29:24;99325.94;;;6.08;100.00
9474;BME280;8865;47.636;7.692;2023-02-01T09:31:50;99320.66;;;6.27;100.00
9474;BME280;8865;47.636;7.692;2023-02-01T09:34:16;99321.16;;;6.34;100.00
9474;BME280;8865;47.636;7.692;2023-02-01T09:36:42;99325.00;;;6.26;100.00
9474;BME280;8865;47.636;7.692;2023-02-01T09:39:08;99326.53;;;6.31;100.00
9474;BME280;8865;47.636;7.692;2023-02-01T09:41:45;99334.41;;;6.29;100.00
9474;BME280;8865;47.636;7.692;2023-02-01T09:47:23;99331.06;;;6.27;100.00
9474;BME280;8865;47.636;7.692;2023-02-01T09:50:00;99333.03;;;6.22;100.00
9474;BME280;8865;47.636;7.692;2023-02-01T09:52:43;99328.25;;;6.48;100.00
9474;BME280;8865;47.636;7.692;2023-02-01T09:58:01;99310.34;;;6.25;100.00
9474;BME280;8865;47.636;7.692;2023-02-01T10:00:36;99314.34;;;6.49;100.00
9474;BME280;8865;47.636;7.692;2023-02-01T10:03:03;99306.44;;;6.34;100.00
9474;BME280;8865;47.636;7.692;2023-02-01T10:08:47;99306.34;;;6.36;100.00
9474;BME280;8865;47.636;7.692;2023-02-01T10:17:10;99301.59;;;6.60;100.00
9474;BME280;8865;47.636;7.692;2023-02-01T10:25:26;99309.66;;;6.55;100.00
9474;BME280;8865;47.636;7.692;2023-02-01T10:27:54;99316.53;;;6.56;100.00
9474;BME280;8865;47.636;7.692;2023-02-01T10:30:24;99323.53;;;6.72;100.00
9474;BME280;8865;47.636;7.692;2023-02-01T10:32:56;99323.97;;;7.28;100.00
9474;BME280;8865;47.636;7.692;2023-02-01T10:35:31;99310.88;;;7.45;100.00
9474;BME280;8865;47.636;7.692;2023-02-01T10:38:02;99316.75;;;7.01;100.00
9474;BME280;8865;47.636;7.692;2023-02-01T10:40:33;99321.84;;;6.71;100.00
9474;BME280;8865;47.636;7.692;2023-02-01T10:43:01;99322.72;;;6.87;100.00
9474;BME280;8865;47.636;7.692;2023-02-01T10:45:29;99327.13;;;6.69;100.00
9474;BME280;8865;47.636;7.692;2023-02-01T10:47:58;99331.16;;;6.59;100.00
9474;BME280;8865;47.636;7.692;2023-02-01T10:55:46;99321.06;;;7.02;100.00
9474;BME280;8865;47.636;7.692;2023-02-01T10:58:17;99314.13;;;6.69;100.00
9474;BME280;8865;47.636;7.692;2023-02-01T11:00:52;99313.38;;;6.67;100.00
9474;BME280;8865;47.636;7.692;2023-02-01T11:03:32;99313.06;;;7.21;100.00
9474;BME280;8865;47.636;7.692;2023-02-01T11:05:59;99314.66;;;6.76;100.00
9474;BME280;8865;47.636;7.692;2023-02-01T11:08:25;99327.69;;;6.92;100.00
9474;BME280;8865;47.636;7.692;2023-02-01T11:11:00;99320.69;;;6.60;100.00
9474;BME280;8865;47.636;7.692;2023-02-01T11:13:37;99310.66;;;6.53;100.00
9474;BME280;8865;47.636;7.692;2023-02-01T11:16:04;99319.22;;;6.55;100.00
9474;BME280;8865;47.636;7.692;2023-02-01T11:18:37;99311.06;;;6.45;100.00
9474;BME280;8865;47.636;7.692;2023-02-01T11:21:05;99311.50;;;6.53;100.00
9474;BME280;8865;47.636;7.692;2023-02-01T11:23:32;99297.66;;;6.85;100.00
9474;BME280;8865;47.636;7.692;2023-02-01T11:26:23;99289.69;;;6.72;100.00
9474;BME280;8865;47.636;7.692;2023-02-01T11:29:03;99293.13;;;6.72;100.00
9474;BME280;8865;47.636;7.692;2023-02-01T11:31:33;99289.94;;;6.67;100.00
9474;BME280;8865;47.636;7.692;2023-02-01T11:34:14;99286.66;;;6.64;100.00
9474;BME280;8865;47.636;7.692;2023-02-01T11:36:41;99288.25;;;6.66;100.00
9474;BME280;8865;47.636;7.692;2023-02-01T11:44:28;99281.47;;;6.79;100.00
9474;BME280;8865;47.636;7.692;2023-02-01T11:46:55;99273.56;;;6.81;100.00
9474;BME280;8865;47.636;7.692;2023-02-01T11:49:38;99264.56;;;6.71;100.00
9474;BME280;8865;47.636;7.692;2023-02-01T11:52:13;99268.69;;;6.91;100.00
9474;BME280;8865;47.636;7.692;2023-02-01T11:54:51;99264.09;;;6.96;100.00
9474;BME280;8865;47.636;7.692;2023-02-01T11:57:27;99254.94;;;6.89;100.00
9474;BME280;8865;47.636;7.692;2023-02-01T12:11:28;99236.94;;;7.00;100.00
9474;BME280;8865;47.636;7.692;2023-02-01T12:14:14;99249.22;;;6.98;100.00
9474;BME280;8865;47.636;7.692;2023-02-01T12:26:05;99234.59;;;7.11;100.00
9474;BME280;8865;47.636;7.692;2023-02-01T12:31:58;99220.19;;;7.20;100.00
9474;BME280;8865;47.636;7.692;2023-02-01T12:34:45;99224.13;;;7.27;100.00
9474;BME280;8865;47.636;7.692;2023-02-01T12:37:39;99215.03;;;7.35;100.00
9474;BME280;8865;47.636;7.692;2023-02-01T12:43:38;99221.69;;;7.24;100.00
9474;BME280;8865;47.636;7.692;2023-02-01T12:46:02;99210.44;;;7.24;100.00
9474;BME280;8865;47.636;7.692;2023-02-01T12:48:37;99209.59;;;7.23;100.00
9474;BME280;8865;47.636;7.692;2023-02-01T12:51:13;99209.06;;;7.32;100.00
9474;BME280;8865;47.636;7.692;2023-02-01T12:54:03;99212.38;;;7.50;100.00
9474;BME280;8865;47.636;7.692;2023-02-01T12:57:08;99246.69;;;7.59;100.00
9474;BME280;8865;47.636;7.692;2023-02-01T12:59:44;99212.19;;;7.23;100.00
9474;BME280;8865;47.636;7.692;2023-02-01T13:02:25;99220.09;;;7.22;100.00
9474;BME280;8865;47.636;7.692;2023-02-01T13:05:18;99201.81;;;7.07;100.00
9474;BME280;8865;47.636;7.692;2023-02-01T13:07:58;99199.28;;;7.06;100.00
9474;BME280;8865;47.636;7.692;2023-02-01T13:10:45;99196.94;;;7.01;100.00
9474;BME280;8865;47.636;7.692;2023-02-01T13:16:23;99179.69;;;7.14;100.00
9474;BME280;8865;47.636;7.692;2023-02-01T13:18:59;99186.81;;;7.27;100.00
9474;BME280;8865;47.636;7.692;2023-02-01T13:21:31;99190.59;;;7.21;100.00
9474;BME280;8865;47.636;7.692;2023-02-01T13:23:58;99185.75;;;7.15;100.00
9474;BME280;8865;47.636;7.692;2023-02-01T13:26:24;99176.56;;;7.24;100.00
9474;BME280;8865;47.636;7.692;2023-02-01T13:28:54;99166.16;;;7.24;100.00
9474;BME280;8865;47.636;7.692;2023-02-01T13:31:32;99157.38;;;7.25;100.00
9474;BME280;8865;47.636;7.692;2023-02-01T13:42:26;99167.03;;;6.92;100.00
9474;BME280;8865;47.636;7.692;2023-02-01T13:45:18;99173.03;;;6.78;100.00
9474;BME280;8865;47.636;7.692;2023-02-01T13:47:48;99168.84;;;6.76;100.00
9474;BME280;8865;47.636;7.692;2023-02-01T13:50:26;99175.88;;;6.74;100.00
9474;BME280;8865;47.636;7.692;2023-02-01T13:53:17;99178.91;;;6.82;100.00
9474;BME280;8865;47.636;7.692;2023-02-01T13:56:01;99179.19;;;6.77;100.00
9474;BME280;8865;47.636;7.692;2023-02-01T13:58:34;99171.03;;;6.84;100.00
9474;BME280;8865;47.636;7.692;2023-02-01T14:11:53;99181.22;;;7.03;100.00
9474;BME280;8865;47.636;7.692;2023-02-01T14:19:21;99189.25;;;6.84;100.00
9474;BME280;8865;47.636;7.692;2023-02-01T14:21:53;99192.06;;;6.95;100.00
9474;BME280;8865;47.636;7.692;2023-02-01T14:24:26;99206.19;;;6.91;100.00
9474;BME280;8865;47.636;7.692;2023-02-01T14:26:54;99204.53;;;6.90;100.00
9474;BME280;8865;47.636;7.692;2023-02-01T14:29:42;99203.84;;;6.86;100.00
9474;BME280;8865;47.636;7.692;2023-02-01T14:37:25;99201.75;;;6.77;100.00
9474;BME280;8865;47.636;7.692;2023-02-01T14:47:53;99203.69;;;6.57;100.00
9474;BME280;8865;47.636;7.692;2023-02-01T14:50:24;99208.53;;;6.48;100.00
9474;BME280;8865;47.636;7.692;2023-02-01T14:53:23;99210.97;;;6.51;100.00
9474;BME280;8865;47.636;7.692;2023-02-01T14:58:41;99203.50;;;6.44;100.00
9474;BME280;8865;47.636;7.692;2023-02-01T15:01:30;99206.56;;;6.53;100.00
9474;BME280;8865;47.636;7.692;2023-02-01T15:06:37;99204.13;;;6.50;100.00
9474;BME280;8865;47.636;7.692;2023-02-01T15:14:45;99209.25;;;6.51;100.00
9474;BME280;8865;47.636;7.692;2023-02-01T15:17:29;99217.47;;;6.59;100.00
9474;BME280;8865;47.636;7.692;2023-02-01T15:20:12;99220.31;;;6.71;100.00
9474;BME280;8865;47.636;7.692;2023-02-01T15:22:39;99216.88;;;6.70;100.00
9474;BME280;8865;47.636;7.692;2023-02-01T15:25:05;99218.47;;;6.73;100.00
9474;BME280;8865;47.636;7.692;2023-02-01T15:27:32;99217.28;;;6.63;100.00
9474;BME280;8865;47.636;7.692;2023-02-01T15:30:17;99219.06;;;6.62;100.00
9474;BME280;8865;47.636;7.692;2023-02-01T15:32:43;99218.22;;;6.61;100.00
9474;BME280;8865;47.636;7.692;2023-02-01T15:35:38;99220.16;;;6.58;100.00
9474;BME280;8865;47.636;7.692;2023-02-01T15:41:07;99235.31;;;6.34;100.00
9474;BME280;8865;47.636;7.692;2023-02-01T15:46:06;99239.16;;;6.26;100.00
9474;BME280;8865;47.636;7.692;2023-02-01T15:49:00;99236.78;;;6.22;100.00
9474;BME280;8865;47.636;7.692;2023-02-01T15:51:28;99233.03;;;6.28;100.00
9474;BME280;8865;47.636;7.692;2023-02-01T15:53:58;99242.06;;;6.20;100.00
9474;BME280;8865;47.636;7.692;2023-02-01T15:56:33;99241.91;;;6.23;100.00
9474;BME280;8865;47.636;7.692;2023-02-01T15:59:01;99244.59;;;6.22;100.00
9474;BME280;8865;47.636;7.692;2023-02-01T16:01:29;99245.97;;;6.29;100.00